Time;durP1;ratioP1;P1;durP2;ratioP2;P2;SDS_P1;SDS_P2;PMS_P1;PMS_P2;Temp;Humidity;BMP_temperature;BMP_pressure;BME280_temperature;BME280_humidity;BME280_pressure;Samples;Min_cycle;Max_cycle;Signal;HPM_P1;HPM_P2
2022/12/06 00:01:57;;;;;;;4.97;2.50;;;;;;;;;;5058681;28;20265;-88
2022/12/06 00:04:25;;;;;;;11.20;2.47;;;;;;;;;;5052128;28;20649;-88
2022/12/06 00:06:53;;;;;;;11.13;2.63;;;;;;;;;;5058938;28;20213;-88
2022/12/06 00:09:24;;;;;;;5.37;2.80;;;;;;;;;;5057752;28;20209;-89
2022/12/06 00:11:51;;;;;;;20.67;2.97;;;;;;;;;;5057568;28;20212;-89
2022/12/06 00:14:19;;;;;;;13.77;2.87;;;;;;;;;;5067396;28;20201;-88
2022/12/06 00:16:47;;;;;;;21.30;2.87;;;;;;;;;;5077451;28;20197;-88
2022/12/06 00:19:17;;;;;;;9.67;2.73;;;;;;;;;;5077700;28;20278;-88
2022/12/06 00:21:46;;;;;;;16.33;3.23;;;;;;;;;;5059506;28;20290;-87
2022/12/06 00:24:14;;;;;;;10.07;3.07;;;;;;;;;;5064683;28;20201;-87
2022/12/06 00:26:46;;;;;;;18.13;2.83;;;;;;;;;;5077635;28;20208;-88
2022/12/06 00:29:15;;;;;;;11.63;2.80;;;;;;;;;;5077732;28;20208;-87
2022/12/06 00:31:43;;;;;;;12.73;2.97;;;;;;;;;;5077318;28;20219;-87
2022/12/06 00:34:11;;;;;;;15.10;2.83;;;;;;;;;;5054673;28;20202;-88
2022/12/06 00:36:40;;;;;;;10.27;2.53;;;;;;;;;;5068633;28;20205;-87
2022/12/06 00:39:10;;;;;;;5.33;2.43;;;;;;;;;;5077196;28;20740;-88
2022/12/06 00:41:38;;;;;;;10.97;2.40;;;;;;;;;;5067089;28;20279;-87
2022/12/06 00:44:08;;;;;;;8.57;2.90;;;;;;;;;;5042049;28;20208;-87
2022/12/06 00:46:40;;;;;;;13.77;3.40;;;;;;;;;;5076888;28;20204;-87
2022/12/06 00:49:08;;;;;;;12.47;3.80;;;;;;;;;;5076513;28;20227;-87
2022/12/06 00:51:36;;;;;;;8.23;2.77;;;;;;;;;;5076840;28;20242;-87
2022/12/06 00:54:04;;;;;;;11.17;3.53;;;;;;;;;;5076977;28;20209;-88
2022/12/06 00:56:31;;;;;;;11.17;3.13;;;;;;;;;;5076675;28;20211;-89
2022/12/06 00:58:59;;;;;;;13.80;3.17;;;;;;;;;;5067485;28;20220;-87
2022/12/06 01:01:29;;;;;;;3.00;2.33;;;;;;;;;;5066730;28;20225;-88
2022/12/06 01:03:59;;;;;;;7.83;2.70;;;;;;;;;;5062434;28;20202;-88
2022/12/06 01:06:29;;;;;;;6.70;2.70;;;;;;;;;;5073731;28;20205;-87
2022/12/06 01:08:58;;;;;;;6.57;2.53;;;;;;;;;;5073859;28;20598;-87
2022/12/06 01:11:25;;;;;;;11.77;2.27;;;;;;;;;;5073476;28;20653;-87
2022/12/06 01:13:53;;;;;;;9.07;2.33;;;;;;;;;;5055953;28;20205;-88
2022/12/06 01:16:23;;;;;;;18.00;2.93;;;;;;;;;;5061680;28;20206;-88
2022/12/06 01:18:55;;;;;;;12.20;2.27;;;;;;;;;;5072908;28;20205;-88
2022/12/06 01:21:23;;;;;;;7.10;2.30;;;;;;;;;;5072539;28;20232;-87
2022/12/06 01:23:53;;;;;;;12.60;2.93;;;;;;;;;;5052130;28;20206;-88
2022/12/06 01:26:22;;;;;;;8.90;2.77;;;;;;;;;;5036134;28;20256;-88
2022/12/06 01:28:50;;;;;;;11.50;2.40;;;;;;;;;;5071069;28;20200;-87
2022/12/06 01:31:18;;;;;;;7.20;2.60;;;;;;;;;;5072484;28;20209;-87
2022/12/06 01:33:49;;;;;;;12.53;2.37;;;;;;;;;;5059195;28;20803;-88
2022/12/06 01:36:20;;;;;;;10.67;3.57;;;;;;;;;;5073101;28;20201;-88
2022/12/06 01:38:50;;;;;;;26.20;3.07;;;;;;;;;;5072410;28;20201;-88
2022/12/06 01:41:19;;;;;;;15.27;3.00;;;;;;;;;;5053150;28;20282;-88
2022/12/06 01:43:47;;;;;;;42.67;3.27;;;;;;;;;;5067497;28;20212;-89
2022/12/06 01:46:28;;;;;;;17.87;3.07;;;;;;;;;;5052621;28;20271;-89
2022/12/06 01:49:00;;;;;;;8.60;2.57;;;;;;;;;;5049995;28;20217;-90
2022/12/06 01:51:30;;;;;;;18.27;2.80;;;;;;;;;;5055576;28;20260;-88
2022/12/06 01:53:59;;;;;;;26.37;3.30;;;;;;;;;;5055014;28;20284;-87
2022/12/06 01:56:26;;;;;;;19.07;2.50;;;;;;;;;;5055231;28;20230;-87
2022/12/06 01:58:55;;;;;;;17.07;2.30;;;;;;;;;;5073024;28;20208;-86
2022/12/06 02:01:23;;;;;;;17.37;2.83;;;;;;;;;;5072156;28;20282;-87
2022/12/06 02:03:50;;;;;;;17.17;2.70;;;;;;;;;;5047591;28;20197;-87
2022/12/06 02:06:18;;;;;;;25.77;3.17;;;;;;;;;;5048609;28;20260;-86
2022/12/06 02:08:48;;;;;;;18.47;2.83;;;;;;;;;;5035633;28;20233;-87
2022/12/06 02:11:16;;;;;;;21.77;3.13;;;;;;;;;;5047257;28;20221;-87
2022/12/06 02:13:43;;;;;;;8.67;2.17;;;;;;;;;;5058363;28;20270;-87
2022/12/06 02:16:21;;;;;;;20.60;2.73;;;;;;;;;;5072668;28;20212;-87
2022/12/06 02:18:51;;;;;;;12.87;2.00;;;;;;;;;;5067537;28;20217;-87
2022/12/06 02:21:26;;;;;;;3.27;2.23;;;;;;;;;;5034792;28;20230;-87
2022/12/06 02:24:29;;;;;;;8.47;2.37;;;;;;;;;;5070971;28;20204;-87
2022/12/06 02:27:16;;;;;;;6.07;1.80;;;;;;;;;;5069193;28;20197;-91
2022/12/06 02:30:06;;;;;;;9.23;2.10;;;;;;;;;;5068530;28;20279;-87
2022/12/06 02:32:39;;;;;;;4.50;1.63;;;;;;;;;;5045471;28;20201;-89
2022/12/06 02:35:13;;;;;;;2.50;1.87;;;;;;;;;;5052492;28;20205;-88
2022/12/06 02:37:45;;;;;;;8.93;2.03;;;;;;;;;;5052345;28;20228;-89
2022/12/06 02:40:19;;;;;;;9.67;2.30;;;;;;;;;;5047586;28;20240;-88
2022/12/06 02:42:50;;;;;;;21.00;3.23;;;;;;;;;;5072451;28;20259;-89
2022/12/06 02:45:21;;;;;;;9.63;2.60;;;;;;;;;;5072112;28;20213;-88
2022/12/06 02:47:51;;;;;;;10.07;3.60;;;;;;;;;;5071279;28;20205;-87
2022/12/06 02:50:20;;;;;;;26.30;4.37;;;;;;;;;;5071704;28;20679;-88
2022/12/06 02:52:50;;;;;;;7.57;2.47;;;;;;;;;;5071742;28;20201;-87
2022/12/06 02:55:18;;;;;;;15.93;2.63;;;;;;;;;;5071545;28;20280;-88
2022/12/06 02:57:48;;;;;;;24.47;2.73;;;;;;;;;;5071871;28;20209;-87
2022/12/06 03:00:34;;;;;;;11.17;1.97;;;;;;;;;;5058157;28;20266;-88
2022/12/06 03:03:14;;;;;;;27.43;2.23;;;;;;;;;;5058252;28;20226;-88
2022/12/06 03:05:49;;;;;;;2.50;2.30;;;;;;;;;;5054324;28;20690;-89
2022/12/06 03:08:24;;;;;;;8.60;2.40;;;;;;;;;;5038159;28;20266;-88
2022/12/06 03:10:55;;;;;;;5.17;3.63;;;;;;;;;;5060660;28;20204;-88
2022/12/06 03:13:26;;;;;;;23.63;3.20;;;;;;;;;;5038343;28;20212;-88
2022/12/06 03:15:56;;;;;;;5.17;3.80;;;;;;;;;;5051710;28;20228;-88
2022/12/06 03:18:30;;;;;;;21.73;2.60;;;;;;;;;;5052673;28;20688;-87
2022/12/06 03:21:00;;;;;;;6.63;1.77;;;;;;;;;;5054578;28;20287;-88
2022/12/06 03:23:31;;;;;;;8.97;2.30;;;;;;;;;;5053186;28;20262;-87
2022/12/06 03:26:00;;;;;;;15.83;2.50;;;;;;;;;;5071276;28;20622;-88
2022/12/06 03:28:28;;;;;;;25.30;3.63;;;;;;;;;;5054346;28;20201;-88
2022/12/06 03:31:01;;;;;;;13.57;6.13;;;;;;;;;;5053638;28;20201;-88
2022/12/06 03:33:31;;;;;;;17.07;2.57;;;;;;;;;;5054189;28;20216;-88
2022/12/06 03:36:00;;;;;;;32.50;2.47;;;;;;;;;;5070774;28;20581;-88
2022/12/06 03:38:31;;;;;;;22.93;2.27;;;;;;;;;;5059339;28;20205;-89
2022/12/06 03:41:04;;;;;;;12.90;2.00;;;;;;;;;;5071064;28;20666;-89
2022/12/06 03:43:36;;;;;;;12.07;1.90;;;;;;;;;;5071349;28;20228;-90
2022/12/06 03:46:12;;;;;;;6.87;1.53;;;;;;;;;;5067008;28;20221;-90
2022/12/06 03:48:44;;;;;;;8.83;1.90;;;;;;;;;;5034216;28;20696;-89
2022/12/06 03:51:16;;;;;;;5.07;1.87;;;;;;;;;;5051494;28;20213;-89
2022/12/06 03:53:47;;;;;;;5.77;1.67;;;;;;;;;;5063277;28;20209;-89
2022/12/06 03:56:17;;;;;;;19.90;10.17;;;;;;;;;;5069077;28;20652;-89
2022/12/06 03:58:45;;;;;;;9.27;7.13;;;;;;;;;;5071661;28;20251;-89
2022/12/06 04:01:13;;;;;;;8.23;4.17;;;;;;;;;;5060610;28;20684;-89
2022/12/06 04:03:41;;;;;;;5.50;4.30;;;;;;;;;;5062901;28;20197;-90
2022/12/06 04:06:11;;;;;;;2.57;2.00;;;;;;;;;;5050895;28;20245;-89
2022/12/06 04:08:39;;;;;;;4.17;3.83;;;;;;;;;;5063787;28;20209;-89
2022/12/06 04:11:07;;;;;;;10.50;7.73;;;;;;;;;;5066024;28;20258;-90
2022/12/06 04:13:35;;;;;;;10.00;7.53;;;;;;;;;;5071041;28;20263;-89
2022/12/06 04:18:09;;;;;;;6.80;6.20;;;;;;;;;;5071476;28;20237;-90
2022/12/06 04:18:52;;;;;;;9.53;6.83;;;;;;;;;;5070832;28;20258;-88
2022/12/06 04:24:07;;;;;;;27.50;17.20;;;;;;;;;;5070941;28;20599;-89
2022/12/06 04:26:35;;;;;;;7.50;6.00;;;;;;;;;;5066656;28;20212;-87
2022/12/06 04:40:01;;;;;;;4.97;3.20;;;;;;;;;;5060887;28;20641;-87
2022/12/06 04:45:12;;;;;;;7.03;6.33;;;;;;;;;;5074327;28;20679;-89
2022/12/06 04:47:39;;;;;;;6.30;5.70;;;;;;;;;;5075142;28;20209;-93
2022/12/06 04:54:06;;;;;;;4.60;4.20;;;;;;;;;;5076296;28;20171;-94
2022/12/06 05:00:32;;;;;;;12.43;9.63;;;;;;;;;;5076164;28;20244;-95
2022/12/06 05:03:04;;;;;;;9.53;8.63;;;;;;;;;;5080808;28;20693;-96
2022/12/06 05:05:40;;;;;;;2.77;2.13;;;;;;;;;;5076943;28;20586;-90
2022/12/06 05:08:08;;;;;;;2.33;2.13;;;;;;;;;;5063783;28;20651;-92
2022/12/06 05:10:39;;;;;;;7.30;2.63;;;;;;;;;;5068594;28;20259;-92
2022/12/06 05:13:07;;;;;;;7.27;3.83;;;;;;;;;;5075035;28;20212;-93
2022/12/06 05:15:37;;;;;;;9.17;4.03;;;;;;;;;;5068100;28;20213;-94
2022/12/06 05:18:06;;;;;;;13.40;2.33;;;;;;;;;;5071870;28;20623;-93
2022/12/06 05:20:36;;;;;;;2.10;1.60;;;;;;;;;;5075162;28;20209;-90
2022/12/06 05:23:04;;;;;;;3.00;2.73;;;;;;;;;;5064690;28;20271;-91
2022/12/06 05:25:33;;;;;;;6.83;3.00;;;;;;;;;;5064163;28;20213;-91
2022/12/06 05:28:02;;;;;;;47.80;30.53;;;;;;;;;;5064087;28;20206;-92
2022/12/06 05:30:42;;;;;;;43.40;28.20;;;;;;;;;;5073315;28;20208;-91
2022/12/06 05:33:10;;;;;;;114.87;68.07;;;;;;;;;;5073269;28;20201;-91
2022/12/06 05:35:39;;;;;;;46.10;23.43;;;;;;;;;;5070113;28;20205;-89
2022/12/06 05:38:12;;;;;;;54.27;32.20;;;;;;;;;;5062618;28;20202;-91
2022/12/06 05:40:41;;;;;;;107.47;52.80;;;;;;;;;;5063014;28;20730;-91
2022/12/06 05:43:10;;;;;;;125.37;56.53;;;;;;;;;;5066606;28;20248;-91
2022/12/06 05:45:38;;;;;;;175.50;74.97;;;;;;;;;;5069096;28;20201;-91
2022/12/06 05:48:05;;;;;;;67.47;27.10;;;;;;;;;;5064672;28;20592;-89
2022/12/06 05:50:32;;;;;;;70.30;33.03;;;;;;;;;;5058697;28;20205;-89
2022/12/06 05:53:00;;;;;;;59.50;34.07;;;;;;;;;;5073198;28;20213;-89
2022/12/06 05:55:27;;;;;;;38.07;27.63;;;;;;;;;;5067318;28;20214;-89
2022/12/06 05:57:54;;;;;;;43.50;30.13;;;;;;;;;;5053934;28;20209;-89
2022/12/06 06:00:23;;;;;;;31.23;22.20;;;;;;;;;;5052624;28;20208;-90
2022/12/06 06:02:50;;;;;;;61.80;40.53;;;;;;;;;;5055744;28;20229;-91
2022/12/06 06:05:46;;;;;;;71.97;53.93;;;;;;;;;;5059505;28;20209;-90
2022/12/06 06:08:13;;;;;;;107.57;74.63;;;;;;;;;;5073145;28;20201;-92
2022/12/06 06:10:48;;;;;;;34.77;26.00;;;;;;;;;;5045788;28;20288;-94
2022/12/06 06:13:43;;;;;;;54.73;34.97;;;;;;;;;;5036723;28;20743;-90
2022/12/06 06:16:16;;;;;;;52.97;16.47;;;;;;;;;;5036285;28;20746;-91
2022/12/06 06:18:43;;;;;;;27.23;21.40;;;;;;;;;;5040143;28;20205;-90
2022/12/06 06:21:10;;;;;;;11.90;9.53;;;;;;;;;;5054981;28;20204;-90
2022/12/06 06:23:39;;;;;;;5.47;4.97;;;;;;;;;;5043129;28;20283;-90
2022/12/06 06:26:07;;;;;;;10.97;7.17;;;;;;;;;;5073154;28;20213;-94
2022/12/06 06:28:36;;;;;;;2.27;2.07;;;;;;;;;;5073282;28;20205;-88
2022/12/06 06:31:03;;;;;;;3.70;2.07;;;;;;;;;;5052696;28;20201;-91
2022/12/06 06:33:32;;;;;;;3.30;2.33;;;;;;;;;;5052170;28;20683;-91
2022/12/06 06:36:00;;;;;;;17.50;10.47;;;;;;;;;;5067015;28;20212;-90
2022/12/06 06:38:27;;;;;;;7.30;5.70;;;;;;;;;;5073142;28;20632;-92
2022/12/06 06:40:54;;;;;;;8.73;6.10;;;;;;;;;;5055693;28;20856;-92
2022/12/06 06:43:21;;;;;;;19.40;11.10;;;;;;;;;;5072919;28;20715;-91
2022/12/06 06:45:52;;;;;;;9.63;7.63;;;;;;;;;;5058592;28;20202;-92
2022/12/06 06:48:20;;;;;;;7.20;6.17;;;;;;;;;;5073062;28;20284;-95
2022/12/06 06:50:50;;;;;;;6.60;4.97;;;;;;;;;;5059150;28;20209;-93
2022/12/06 06:53:18;;;;;;;3.43;3.13;;;;;;;;;;5067500;28;20202;-88
2022/12/06 06:55:45;;;;;;;1.93;1.83;;;;;;;;;;5047877;28;20198;-88
2022/12/06 06:58:13;;;;;;;1.93;1.83;;;;;;;;;;5052085;28;20258;-90
2022/12/06 07:00:40;;;;;;;5.27;4.50;;;;;;;;;;5062689;28;20715;-89
2022/12/06 07:03:07;;;;;;;4.23;2.87;;;;;;;;;;5041586;28;20240;-91
2022/12/06 07:05:34;;;;;;;10.07;5.47;;;;;;;;;;5072234;28;20209;-92
2022/12/06 07:08:03;;;;;;;5.77;4.13;;;;;;;;;;5055234;28;20201;-94
2022/12/06 07:10:30;;;;;;;2.47;2.13;;;;;;;;;;5055158;28;20217;-94
2022/12/06 07:12:57;;;;;;;2.03;1.83;;;;;;;;;;5051407;28;20235;-94
2022/12/06 07:15:24;;;;;;;2.87;2.67;;;;;;;;;;5052640;28;20259;-91
2022/12/06 07:17:52;;;;;;;1.90;1.80;;;;;;;;;;5065901;28;20638;-93
2022/12/06 07:20:20;;;;;;;2.33;2.13;;;;;;;;;;5043231;28;20208;-91
2022/12/06 07:22:47;;;;;;;2.90;2.70;;;;;;;;;;5072197;28;20658;-92
2022/12/06 07:25:18;;;;;;;2.20;1.90;;;;;;;;;;5048085;28;20296;-87
2022/12/06 07:27:59;;;;;;;2.80;2.60;;;;;;;;;;5035033;28;20213;-88
2022/12/06 07:30:26;;;;;;;2.60;2.40;;;;;;;;;;5052102;28;20209;-92
2022/12/06 07:32:53;;;;;;;2.80;2.57;;;;;;;;;;5048365;28;20292;-89
2022/12/06 07:35:21;;;;;;;3.00;2.73;;;;;;;;;;5053965;28;20262;-88
2022/12/06 07:37:49;;;;;;;2.80;2.60;;;;;;;;;;5068340;28;20205;-90
2022/12/06 07:40:18;;;;;;;2.07;1.90;;;;;;;;;;5034348;28;20757;-92
2022/12/06 07:45:31;;;;;;;3.00;2.70;;;;;;;;;;5043026;28;20212;-90
2022/12/06 07:54:54;;;;;;;2.77;2.57;;;;;;;;;;5073298;28;20208;-90
2022/12/06 07:57:23;;;;;;;2.50;2.30;;;;;;;;;;5055174;28;20208;-91
2022/12/06 08:00:03;;;;;;;2.10;1.63;;;;;;;;;;5054953;28;20205;-90
2022/12/06 08:02:30;;;;;;;2.37;2.17;;;;;;;;;;5054774;28;20215;-90
2022/12/06 08:04:57;;;;;;;3.33;3.03;;;;;;;;;;5071791;28;20208;-91
2022/12/06 08:07:25;;;;;;;3.33;2.43;;;;;;;;;;5071413;28;20209;-90
2022/12/06 08:09:54;;;;;;;2.63;2.43;;;;;;;;;;5056599;28;20212;-91
2022/12/06 08:12:23;;;;;;;3.37;3.07;;;;;;;;;;5075958;28;20216;-92
2022/12/06 08:14:50;;;;;;;3.13;2.83;;;;;;;;;;5058382;28;20205;-90
2022/12/06 08:17:17;;;;;;;3.77;3.47;;;;;;;;;;5057911;28;20593;-91
2022/12/06 08:19:45;;;;;;;3.97;3.67;;;;;;;;;;5057986;28;20211;-91
2022/12/06 08:22:12;;;;;;;4.70;3.73;;;;;;;;;;5058059;28;20209;-87
2022/12/06 08:24:39;;;;;;;4.33;3.37;;;;;;;;;;5074733;28;20220;-89
2022/12/06 08:27:06;;;;;;;4.93;4.43;;;;;;;;;;5075869;28;20217;-93
2022/12/06 08:30:00;;;;;;;3.83;3.50;;;;;;;;;;5077210;28;20201;-92
2022/12/06 08:32:27;;;;;;;4.03;3.50;;;;;;;;;;5043959;28;20208;-91
2022/12/06 08:34:54;;;;;;;4.87;4.47;;;;;;;;;;5057626;28;20205;-91
2022/12/06 08:37:21;;;;;;;4.73;4.13;;;;;;;;;;5057210;28;20212;-91
2022/12/06 08:39:50;;;;;;;3.50;3.20;;;;;;;;;;5057778;28;20193;-92
2022/12/06 08:42:17;;;;;;;3.83;3.37;;;;;;;;;;5057485;28;20654;-90
2022/12/06 08:45:16;;;;;;;3.73;3.37;;;;;;;;;;5057656;28;20327;-93
2022/12/06 08:47:43;;;;;;;3.67;3.33;;;;;;;;;;5061273;28;20205;-94
2022/12/06 08:50:11;;;;;;;3.90;3.50;;;;;;;;;;5060268;28;20270;-95
2022/12/06 08:52:38;;;;;;;4.70;3.17;;;;;;;;;;5057642;28;20679;-92
2022/12/06 08:55:06;;;;;;;3.57;3.27;;;;;;;;;;5076305;28;20197;-89
2022/12/06 08:57:33;;;;;;;3.77;3.33;;;;;;;;;;5057564;28;20216;-92
2022/12/06 09:00:00;;;;;;;4.03;3.63;;;;;;;;;;5057508;28;20197;-93
2022/12/06 09:02:48;;;;;;;4.20;3.80;;;;;;;;;;5057790;28;20250;-94
2022/12/06 09:05:15;;;;;;;4.53;4.13;;;;;;;;;;5061727;28;20201;-94
2022/12/06 09:07:47;;;;;;;6.57;5.73;;;;;;;;;;5058956;28;20603;-93
2022/12/06 09:10:32;;;;;;;6.27;5.37;;;;;;;;;;5039550;28;20206;-93
2022/12/06 09:12:58;;;;;;;4.10;3.73;;;;;;;;;;5051558;28;20205;-94
2022/12/06 09:18:51;;;;;;;8.00;7.23;;;;;;;;;;5075272;28;20196;-88
2022/12/06 09:21:20;;;;;;;8.57;7.77;;;;;;;;;;5073047;28;20247;-92
2022/12/06 09:23:47;;;;;;;7.90;6.47;;;;;;;;;;5044067;28;20224;-96
2022/12/06 09:26:14;;;;;;;6.87;6.17;;;;;;;;;;5057135;28;20679;-93
2022/12/06 09:28:43;;;;;;;7.03;6.33;;;;;;;;;;5057311;28;20212;-96
2022/12/06 09:31:10;;;;;;;11.43;9.83;;;;;;;;;;5076050;28;20201;-89
2022/12/06 09:33:44;;;;;;;13.63;11.30;;;;;;;;;;5060091;28;20209;-92
2022/12/06 09:36:15;;;;;;;16.73;13.33;;;;;;;;;;5074667;28;20701;-93
2022/12/06 09:38:44;;;;;;;15.33;12.90;;;;;;;;;;5056950;28;20217;-93
2022/12/06 09:41:29;;;;;;;16.43;11.30;;;;;;;;;;5057080;28;20283;-90
2022/12/06 09:44:08;;;;;;;14.60;12.27;;;;;;;;;;5069204;28;20228;-93
2022/12/06 09:46:50;;;;;;;15.07;11.73;;;;;;;;;;5074991;28;20205;-90
2022/12/06 09:49:31;;;;;;;17.80;14.93;;;;;;;;;;5074362;28;20719;-90
2022/12/06 09:52:30;;;;;;;14.50;12.53;;;;;;;;;;5074478;28;20638;-94
2022/12/06 09:55:14;;;;;;;16.03;14.00;;;;;;;;;;5074244;28;20575;-94
2022/12/06 09:57:43;;;;;;;16.50;13.33;;;;;;;;;;5061565;28;20600;-96
2022/12/06 10:00:14;;;;;;;13.57;11.53;;;;;;;;;;5067346;28;20216;-96
2022/12/06 10:03:14;;;;;;;16.90;12.87;;;;;;;;;;5044059;28;20197;-95
2022/12/06 10:05:52;;;;;;;11.43;9.73;;;;;;;;;;5054241;28;20206;-92
2022/12/06 10:08:27;;;;;;;12.53;10.27;;;;;;;;;;5072136;28;20205;-95
2022/12/06 10:17:48;;;;;;;9.80;8.47;;;;;;;;;;5075748;28;20611;-95
2022/12/06 10:20:21;;;;;;;11.43;9.90;;;;;;;;;;5056619;28;20259;-93
2022/12/06 10:23:05;;;;;;;10.10;8.40;;;;;;;;;;5074131;28;20208;-93
2022/12/06 10:25:41;;;;;;;11.10;8.77;;;;;;;;;;5054435;28;20209;-91
2022/12/06 10:28:30;;;;;;;11.20;8.27;;;;;;;;;;5037422;28;20623;-92
2022/12/06 10:31:44;;;;;;;10.37;8.53;;;;;;;;;;5038695;28;20673;-93
2022/12/06 10:34:20;;;;;;;9.30;6.97;;;;;;;;;;5065318;28;20217;-92
2022/12/06 10:36:53;;;;;;;10.30;9.03;;;;;;;;;;5074138;28;20250;-91
2022/12/06 10:39:23;;;;;;;10.97;8.60;;;;;;;;;;5073136;28;20201;-87
2022/12/06 10:41:55;;;;;;;11.50;8.50;;;;;;;;;;5072619;28;20233;-93
2022/12/06 10:44:25;;;;;;;10.07;8.70;;;;;;;;;;5055048;28;20294;-92
2022/12/06 10:47:05;;;;;;;9.93;8.93;;;;;;;;;;5049257;28;20235;-86
2022/12/06 10:49:48;;;;;;;9.73;8.50;;;;;;;;;;5072026;28;20201;-88
2022/12/06 10:52:23;;;;;;;8.60;7.53;;;;;;;;;;5058336;28;20232;-90
2022/12/06 10:54:56;;;;;;;10.43;9.33;;;;;;;;;;5071733;28;20200;-87
2022/12/06 10:57:28;;;;;;;11.70;8.57;;;;;;;;;;5043070;28;20296;-93
2022/12/06 10:59:59;;;;;;;10.80;9.63;;;;;;;;;;5072322;28;20212;-94
2022/12/06 11:03:13;;;;;;;11.27;10.07;;;;;;;;;;5053005;28;20572;-91
2022/12/06 11:05:46;;;;;;;10.30;9.20;;;;;;;;;;5058211;28;20205;-93
2022/12/06 11:08:17;;;;;;;10.40;8.30;;;;;;;;;;5055221;28;20201;-87
2022/12/06 11:10:45;;;;;;;9.37;8.37;;;;;;;;;;5064331;28;20215;-94
2022/12/06 11:16:33;;;;;;;18.70;15.10;;;;;;;;;;4964051;28;20213;-92
2022/12/06 11:19:06;;;;;;;19.70;15.40;;;;;;;;;;5068172;28;20630;-92
2022/12/06 11:21:40;;;;;;;17.13;12.37;;;;;;;;;;5065819;28;20205;-91
2022/12/06 11:24:13;;;;;;;46.13;25.60;;;;;;;;;;5063495;28;20232;-92
2022/12/06 11:26:45;;;;;;;25.33;17.20;;;;;;;;;;5062718;28;20212;-92
2022/12/06 11:29:13;;;;;;;96.67;45.47;;;;;;;;;;5045340;28;20209;-92
2022/12/06 11:31:43;;;;;;;101.77;46.53;;;;;;;;;;5062637;28;20201;-91
2022/12/06 11:34:15;;;;;;;39.67;21.67;;;;;;;;;;5065879;28;20209;-91
2022/12/06 11:36:44;;;;;;;28.77;17.73;;;;;;;;;;5070668;28;20209;-92
2022/12/06 11:39:13;;;;;;;48.67;22.03;;;;;;;;;;5067420;28;20254;-92
2022/12/06 11:41:44;;;;;;;13.03;8.80;;;;;;;;;;5059740;28;20225;-89
2022/12/06 11:44:14;;;;;;;12.33;8.30;;;;;;;;;;5071759;28;20228;-94
2022/12/06 11:46:41;;;;;;;15.33;10.73;;;;;;;;;;5071339;28;20649;-93
2022/12/06 11:49:16;;;;;;;32.87;16.97;;;;;;;;;;5054853;28;20213;-93
2022/12/06 11:51:45;;;;;;;11.07;9.17;;;;;;;;;;5039578;28;20211;-87
2022/12/06 11:54:20;;;;;;;51.27;30.33;;;;;;;;;;5054765;28;20235;-89
2022/12/06 11:56:47;;;;;;;19.67;14.07;;;;;;;;;;5039059;28;20204;-88
2022/12/06 11:59:25;;;;;;;16.30;11.60;;;;;;;;;;5053668;28;20246;-89
2022/12/06 12:01:53;;;;;;;20.47;15.70;;;;;;;;;;5053581;28;20612;-89
2022/12/06 12:04:34;;;;;;;14.03;12.17;;;;;;;;;;5054368;28;20237;-87
2022/12/06 12:07:05;;;;;;;13.93;11.50;;;;;;;;;;5065659;28;20240;-87
2022/12/06 12:09:36;;;;;;;14.97;12.87;;;;;;;;;;5051687;28;20206;-90
2022/12/06 12:12:07;;;;;;;15.90;13.50;;;;;;;;;;5065472;28;20202;-89
2022/12/06 12:14:38;;;;;;;16.53;13.17;;;;;;;;;;5046115;28;20197;-90
2022/12/06 12:17:05;;;;;;;25.60;22.37;;;;;;;;;;5066927;28;20233;-90
2022/12/06 12:19:35;;;;;;;17.93;15.97;;;;;;;;;;5048461;28;20220;-94
2022/12/06 12:22:20;;;;;;;16.43;14.63;;;;;;;;;;5051329;28;20212;-92
2022/12/06 12:24:49;;;;;;;16.27;13.07;;;;;;;;;;5053605;28;20251;-92
2022/12/06 12:27:43;;;;;;;14.67;12.27;;;;;;;;;;5071341;28;20201;-91
2022/12/06 12:30:35;;;;;;;11.77;10.57;;;;;;;;;;5055811;28;20675;-92
2022/12/06 12:33:21;;;;;;;11.67;10.20;;;;;;;;;;5048373;28;20228;-91
2022/12/06 12:35:51;;;;;;;9.87;8.37;;;;;;;;;;5054136;28;20215;-90
2022/12/06 12:38:39;;;;;;;12.23;10.17;;;;;;;;;;5058851;28;20606;-90
2022/12/06 12:41:22;;;;;;;8.80;7.90;;;;;;;;;;5041428;28;20225;-91
2022/12/06 12:43:57;;;;;;;11.77;8.40;;;;;;;;;;5055708;28;20256;-92
2022/12/06 12:46:24;;;;;;;14.57;12.23;;;;;;;;;;5050984;28;20209;-90
2022/12/06 12:48:51;;;;;;;21.93;16.27;;;;;;;;;;5044245;28;20205;-92
2022/12/06 12:51:28;;;;;;;18.30;14.93;;;;;;;;;;5070807;28;20274;-90
2022/12/06 12:53:59;;;;;;;24.33;17.13;;;;;;;;;;5071017;28;20258;-95
2022/12/06 12:56:34;;;;;;;21.20;15.97;;;;;;;;;;5074446;28;20216;-87
2022/12/06 12:59:03;;;;;;;68.63;39.17;;;;;;;;;;5075441;28;20208;-94
2022/12/06 13:01:45;;;;;;;97.60;55.53;;;;;;;;;;5074949;28;20224;-91
2022/12/06 13:04:15;;;;;;;32.73;23.00;;;;;;;;;;5075000;28;20235;-94
2022/12/06 13:06:47;;;;;;;14.20;10.90;;;;;;;;;;5057281;28;20206;-91
2022/12/06 13:09:22;;;;;;;13.13;9.23;;;;;;;;;;5021276;28;20209;-93
2022/12/06 13:11:54;;;;;;;14.17;11.23;;;;;;;;;;5072538;28;20212;-90
2022/12/06 13:14:22;;;;;;;20.17;16.03;;;;;;;;;;5057955;28;20213;-91
2022/12/06 13:16:51;;;;;;;22.67;18.50;;;;;;;;;;5042826;28;20658;-90
2022/12/06 13:19:18;;;;;;;19.13;15.20;;;;;;;;;;5065153;28;20214;-88
2022/12/06 13:21:46;;;;;;;14.93;13.33;;;;;;;;;;5069173;28;20752;-88
2022/12/06 13:24:21;;;;;;;16.00;13.70;;;;;;;;;;5073867;28;20725;-86
2022/12/06 13:26:50;;;;;;;40.07;29.83;;;;;;;;;;5073488;28;20232;-87
2022/12/06 13:29:25;;;;;;;33.73;24.47;;;;;;;;;;5059847;28;20206;-90
2022/12/06 13:31:53;;;;;;;25.87;22.97;;;;;;;;;;5063142;28;20655;-88
2022/12/06 13:34:23;;;;;;;52.43;45.37;;;;;;;;;;5040847;28;20212;-94
2022/12/06 13:36:51;;;;;;;55.10;42.13;;;;;;;;;;5041422;28;20256;-94
2022/12/06 13:39:53;;;;;;;41.27;28.77;;;;;;;;;;5047588;28;20264;-93
2022/12/06 13:42:24;;;;;;;75.13;52.93;;;;;;;;;;5026122;28;20211;-90
2022/12/06 13:44:54;;;;;;;35.07;25.23;;;;;;;;;;5031193;28;20289;-90
2022/12/06 13:47:41;;;;;;;44.17;33.20;;;;;;;;;;5034674;28;20285;-86
2022/12/06 13:50:49;;;;;;;48.20;36.43;;;;;;;;;;5033147;28;20202;-89
2022/12/06 13:53:16;;;;;;;40.10;33.67;;;;;;;;;;4973505;28;20215;-89
2022/12/06 13:55:53;;;;;;;27.23;24.23;;;;;;;;;;4959056;28;20210;-87
2022/12/06 13:58:41;;;;;;;16.73;15.00;;;;;;;;;;4987584;28;20209;-89
2022/12/06 14:01:44;;;;;;;17.33;15.60;;;;;;;;;;5031154;28;20403;-89
2022/12/06 14:04:35;;;;;;;14.27;11.17;;;;;;;;;;5033632;28;20206;-89
2022/12/06 14:07:04;;;;;;;9.67;8.67;;;;;;;;;;5032423;28;20214;-91
2022/12/06 14:09:42;;;;;;;12.83;11.30;;;;;;;;;;5033478;28;20221;-89
2022/12/06 14:12:17;;;;;;;14.53;13.03;;;;;;;;;;5023089;28;20218;-91
2022/12/06 14:14:45;;;;;;;11.93;10.27;;;;;;;;;;5030062;28;20221;-89
2022/12/06 14:17:13;;;;;;;14.27;12.77;;;;;;;;;;5023207;28;20212;-90
2022/12/06 14:19:44;;;;;;;17.57;13.73;;;;;;;;;;5015632;28;20219;-89
2022/12/06 14:22:20;;;;;;;11.93;10.73;;;;;;;;;;5032615;28;20206;-90
2022/12/06 14:24:58;;;;;;;14.07;12.10;;;;;;;;;;5033241;28;20233;-88
2022/12/06 14:27:29;;;;;;;11.50;10.27;;;;;;;;;;5033560;28;20206;-89
2022/12/06 14:30:08;;;;;;;13.33;10.30;;;;;;;;;;5033821;28;20214;-88
2022/12/06 14:32:36;;;;;;;14.90;11.77;;;;;;;;;;5033038;28;20198;-87
2022/12/06 14:35:07;;;;;;;12.27;10.80;;;;;;;;;;5033255;28;20206;-91
2022/12/06 14:37:34;;;;;;;33.17;24.43;;;;;;;;;;5022868;28;20301;-91
2022/12/06 14:40:04;;;;;;;49.07;35.93;;;;;;;;;;5031198;28;20264;-90
2022/12/06 14:45:17;;;;;;;57.73;42.03;;;;;;;;;;5072851;28;20310;-88
2022/12/06 14:47:45;;;;;;;48.33;35.57;;;;;;;;;;5055015;28;20205;-88
2022/12/06 14:50:50;;;;;;;50.03;37.10;;;;;;;;;;5073647;28;20292;-90
2022/12/06 14:53:29;;;;;;;34.90;26.87;;;;;;;;;;5071938;28;20196;-91
2022/12/06 14:56:20;;;;;;;35.97;25.00;;;;;;;;;;5073670;28;20207;-90
2022/12/06 14:58:49;;;;;;;25.93;19.50;;;;;;;;;;5053180;28;20198;-87
2022/12/06 15:01:17;;;;;;;46.10;32.77;;;;;;;;;;5055384;28;20292;-92
2022/12/06 15:03:45;;;;;;;18.80;13.30;;;;;;;;;;5073097;28;20259;-91
2022/12/06 15:09:43;;;;;;;38.87;29.47;;;;;;;;;;5073255;28;20254;-89
2022/12/06 15:15:44;;;;;;;57.30;40.57;;;;;;;;;;5055991;28;20228;-90
2022/12/06 15:18:16;;;;;;;45.27;34.87;;;;;;;;;;5051967;28;20205;-92
2022/12/06 15:20:45;;;;;;;29.13;25.43;;;;;;;;;;5041661;28;20209;-89
2022/12/06 15:23:29;;;;;;;20.43;16.57;;;;;;;;;;5072920;28;20208;-89
2022/12/06 15:25:59;;;;;;;33.60;23.93;;;;;;;;;;5069091;28;20286;-87
2022/12/06 15:28:33;;;;;;;17.53;12.27;;;;;;;;;;5045230;28;20673;-88
2022/12/06 15:31:01;;;;;;;14.13;10.70;;;;;;;;;;5069830;28;20597;-88
2022/12/06 15:33:28;;;;;;;13.97;8.83;;;;;;;;;;5047817;28;20220;-87
2022/12/06 15:35:58;;;;;;;12.20;9.07;;;;;;;;;;5068782;28;20211;-90
2022/12/06 15:38:26;;;;;;;9.23;7.30;;;;;;;;;;5072681;28;20217;-91
2022/12/06 15:40:59;;;;;;;14.67;11.13;;;;;;;;;;5072462;28;20237;-90
2022/12/06 15:43:31;;;;;;;12.47;9.40;;;;;;;;;;5072288;28;20208;-91
2022/12/06 15:46:01;;;;;;;15.73;12.07;;;;;;;;;;5071317;28;20623;-84
2022/12/06 15:48:31;;;;;;;25.03;19.53;;;;;;;;;;5059620;28;20647;-85
2022/12/06 15:51:00;;;;;;;15.23;12.37;;;;;;;;;;5056823;28;20603;-86
2022/12/06 15:53:29;;;;;;;12.83;11.53;;;;;;;;;;5058821;28;20602;-87
2022/12/06 15:55:56;;;;;;;20.50;15.77;;;;;;;;;;5043209;28;20206;-86